Thunder radar more information blitzortung!


Radar de pluja more information rain snow radar


Visita la nostra xarxa de llocs de meteo:

Template documentation
and downloads

And another site



No particular awareness of the weather is required.    There are no Weather-warnings

Pagina Historial Weather Underground text

Diari Resum Juliol 24, 2017 Unitats:  Imperial    Mètric   Tant
« Previous Dia
SegĂźent Dia »
Diari Setmana Mensual Anual Personalitzada
  Maxima: Minima: Media:
Temperatura: 93.2 °F 62.2 °F 78.3 °F
Punt de rosada: 64.4 °F 53.4 °F 61 °F
Humitat: 95 % 31 % 58 %
Wind Speed: 15 mph 0 mph 5.5 mph
RĂ fegues de vent: 15 mph - -
Vent:- - SSE
Pression baro: 30 in 29.8 in -
Precipitacions: 0 in    
Historical Graphs
 
 
Dades de taula per Juliol 24, 2017
Temps Temperatura Punt de rosada Pression baro Vent Wind Speed RĂ fegues de vent Humitat Rainfall Rate (Hourly)
00:03 66.2 °F 63.1 °F 30 in Calm     90 % 0 in
00:05 63.1 °F 61.3 °F 29.9 in WSW 1 mph 2 mph 94 % 0 in
00:15 63 °F 61 °F 29.9 in SW 2 mph 3 mph 93 % 0 in
00:25 62.8 °F 60.6 °F 29.9 in SW 2 mph 3 mph 93 % 0 in
00:35 62.8 °F 60.6 °F 29.9 in SW 2 mph 3 mph 93 % 0 in
00:45 62.8 °F 60.6 °F 29.9 in WSW 2 mph 3 mph 93 % 0 in
00:55 62.8 °F 60.6 °F 29.9 in WSW 1 mph 2 mph 93 % 0 in
01:05 62.6 °F 60.8 °F 29.9 in SW 1 mph 3 mph 94 % 0 in
01:15 62.6 °F 60.8 °F 29.9 in Calm   2 mph 94 % 0 in
01:25 62.6 °F 60.8 °F 29.9 in Calm     94 % 0 in
01:35 62.4 °F 61 °F 29.9 in SW 2 mph 3 mph 95 % 0 in
01:45 62.2 °F 60.8 °F 29.9 in Calm   3 mph 95 % 0 in
01:55 62.2 °F 60.8 °F 29.9 in Calm     95 % 0 in
02:05 62.4 °F 61 °F 29.9 in Calm     95 % 0 in
02:15 63 °F 61.5 °F 29.9 in Calm   1 mph 95 % 0 in
02:25 63.1 °F 61.7 °F 29.9 in Calm   1 mph 95 % 0 in
02:35 63.3 °F 61.9 °F 29.9 in ENE 1 mph 1 mph 95 % 0 in
02:45 63.7 °F 62.2 °F 29.9 in Calm     95 % 0 in
02:55 64.4 °F 62.2 °F 29.9 in Calm   2 mph 93 % 0 in
03:05 65.3 °F 63 °F 29.9 in Calm   1 mph 92 % 0 in
03:15 66.4 °F 63.3 °F 29.9 in NE 1 mph 1 mph 90 % 0 in
03:25 68.4 °F 64.2 °F 29.9 in ENE 2 mph 2 mph 87 % 0 in
03:35 69.4 °F 63.7 °F 29.9 in ENE 2 mph 3 mph 82 % 0 in
03:45 70 °F 63.9 °F 29.9 in NE 1 mph 2 mph 81 % 0 in
03:55 70 °F 62.8 °F 29.9 in WSW 2 mph 4 mph 78 % 0 in
04:05 70.2 °F 62.2 °F 29.9 in WSW 2 mph 3 mph 76 % 0 in
04:15 71.1 °F 62.4 °F 29.9 in WSW 1 mph 2 mph 74 % 0 in
04:25 73 °F 63.9 °F 29.9 in West 1 mph 3 mph 73 % 0 in
04:35 73 °F 63.5 °F 29.9 in WNW 3 mph 5 mph 72 % 0 in
04:45 73.6 °F 62.8 °F 29.9 in WNW 2 mph 5 mph 69 % 0 in
04:55 74.7 °F 62.4 °F 29.9 in NNW 3 mph 4 mph 66 % 0 in
05:00 74.8 °F 63.7 °F 29.9 in North 2 mph 3 mph 68 % 0 in
10:04 75.2 °F 63.1 °F 29.9 in SSW 2.3 mph 2.3 mph 66 % 0 in
10:09 75.7 °F 63.1 °F 29.9 in NW 3.5 mph 3.5 mph 65 % 0 in
10:14 75.9 °F 63.3 °F 29.9 in WNW 2.4 mph 2.4 mph 65 % 0 in
10:19 76.8 °F 63.7 °F 29.9 in West 2.9 mph 2.9 mph 64 % 0 in
10:24 76.3 °F 62.8 °F 29.9 in West 8.1 mph 8.1 mph 63 % 0 in
10:29 76.5 °F 63 °F 29.9 in West 4.6 mph 4.6 mph 63 % 0 in
10:34 76.8 °F 62.8 °F 29.9 in West 3.5 mph 3.5 mph 62 % 0 in
10:39 76.8 °F 62.8 °F 29.9 in WSW 4.6 mph 4.6 mph 62 % 0 in
10:44 76.5 °F 61.2 °F 29.9 in North 9.2 mph 9.2 mph 59 % 0 in
10:49 77.4 °F 61.3 °F 29.9 in WNW 6.9 mph 6.9 mph 58 % 0 in
10:54 77.5 °F 61.2 °F 29.9 in West 9.2 mph 9.2 mph 57 % 0 in
10:59 77.4 °F 59.9 °F 29.9 in West 8.1 mph 8.1 mph 55 % 0 in
11:04 78.1 °F 61.2 °F 29.9 in SSW 4.6 mph 4.6 mph 56 % 0 in
11:09 78.6 °F 61.5 °F 29.9 in West 4.6 mph 4.6 mph 56 % 0 in
11:14 79.2 °F 61.5 °F 29.9 in WNW 3.5 mph 3.6 mph 55 % 0 in
11:19 79.5 °F 61.3 °F 29.9 in WSW 4.6 mph 4.6 mph 54 % 0 in
11:24 79.9 °F 61.7 °F 29.9 in SW 3.6 mph 3.6 mph 54 % 0 in
11:29 80.4 °F 61.7 °F 29.9 in West 6.4 mph 6.4 mph 53 % 0 in
11:34 80.2 °F 61 °F 29.9 in SW 6.9 mph 6.9 mph 52 % 0 in
11:39 80.6 °F 60.8 °F 29.9 in WSW 5.8 mph 5.8 mph 51 % 0 in
11:44 81 °F 61.2 °F 29.9 in SW 4.7 mph 4.7 mph 51 % 0 in
11:49 80.8 °F 59.7 °F 29.9 in West 11.5 mph 11.5 mph 49 % 0 in
11:54 81.1 °F 60.3 °F 29.9 in NNW 15 mph 15 mph 49 % 0 in
11:59 81.3 °F 60.3 °F 29.9 in SW 5.8 mph 5.8 mph 49 % 0 in
12:04 81.7 °F 60.6 °F 29.9 in WSW 15 mph 15 mph 49 % 0 in
12:09 82 °F 61 °F 29.9 in WNW 9.2 mph 9.2 mph 49 % 0 in
12:14 82.4 °F 60.6 °F 29.9 in SSW 5.8 mph 5.8 mph 48 % 0 in
12:19 82.8 °F 61.2 °F 29.9 in SW 9.2 mph 9.2 mph 48 % 0 in
12:24 83.8 °F 62.6 °F 29.9 in SW 3.5 mph 3.5 mph 49 % 0 in
12:29 84.4 °F 61.9 °F 29.9 in West 4.9 mph 4.9 mph 47 % 0 in
12:34 84.6 °F 62.1 °F 29.9 in West 3.5 mph 3.5 mph 47 % 0 in
12:39 85.1 °F 62.6 °F 29.9 in WNW 3.3 mph 3.3 mph 47 % 0 in
12:44 85.1 °F 62.1 °F 29.9 in SW 8.1 mph 8.1 mph 46 % 0 in
12:49 85.1 °F 62.1 °F 29.9 in SW 3.6 mph 3.8 mph 46 % 0 in
12:54 85.1 °F 61.3 °F 29.9 in SW 6.9 mph 6.9 mph 45 % 0 in
12:59 85.5 °F 61.2 °F 29.9 in WSW 8.1 mph 8.1 mph 44 % 0 in
13:04 85.5 °F 60.4 °F 29.9 in WSW 9.2 mph 9.2 mph 43 % 0 in
13:09 86.5 °F 61.3 °F 29.9 in West 5.8 mph 5.8 mph 43 % 0 in
13:14 86 °F 60.3 °F 29.9 in SW 10.4 mph 10.4 mph 42 % 0 in
13:19 86.5 °F 60.6 °F 29.9 in SW 6.9 mph 6.9 mph 42 % 0 in
13:24 87.3 °F 61.3 °F 29.9 in SW 3.8 mph 3.8 mph 42 % 0 in
13:29 87.1 °F 61.2 °F 29.9 in West 6 mph 6 mph 42 % 0 in
13:39 86.7 °F 59.5 °F 29.9 in West 5.8 mph 5.8 mph 40 % 0 in
13:44 87.1 °F 59.7 °F 29.9 in West 5.8 mph 5.8 mph 40 % 0 in
13:49 88.2 °F 60.8 °F 29.9 in West 6.9 mph 6.9 mph 40 % 0 in
13:54 87.8 °F 59.7 °F 29.9 in North 5.8 mph 5.8 mph 39 % 0 in
13:59 87.6 °F 59.5 °F 29.9 in WSW 8.1 mph 8.1 mph 39 % 0 in
14:04 88 °F 59.9 °F 29.9 in SW 6.9 mph 6.9 mph 39 % 0 in
14:09 88.5 °F 59.7 °F 29.9 in WSW 3.5 mph 3.5 mph 38 % 0 in
14:14 88 °F 58.5 °F 29.9 in WSW 6.9 mph 6.9 mph 37 % 0 in
14:19 89.2 °F 60.3 °F 29.9 in WNW 3.6 mph 3.6 mph 38 % 0 in
14:24 90 °F 61.7 °F 29.9 in SW 3.8 mph 3.8 mph 39 % 0 in
14:29 89.6 °F 60.6 °F 29.9 in West 5.8 mph 5.8 mph 38 % 0 in
14:34 89.4 °F 60.4 °F 29.9 in WSW 5.8 mph 5.8 mph 38 % 0 in
14:39 88.7 °F 59.2 °F 29.9 in SW 4.6 mph 4.6 mph 37 % 0 in
14:44 89.2 °F 58.8 °F 29.9 in WNW 3.5 mph 3.5 mph 36 % 0 in
14:49 90.5 °F 59.9 °F 29.9 in WSW 6 mph 6 mph 36 % 0 in
14:54 91 °F 59.5 °F 29.9 in South 5.8 mph 5.8 mph 35 % 0 in
15:04 91.2 °F 59.7 °F 29.8 in South 3.5 mph 3.5 mph 35 % 0 in
15:10 91.8 °F 58.6 °F 29.8 in West 5.8 mph 5.8 mph 33 % 0 in
15:15 93 °F 61.3 °F 29.8 in SSW 3.5 mph 3.5 mph 35 % 0 in
15:20 92.8 °F 60.3 °F 29.9 in West 4.6 mph 4.6 mph 34 % 0 in
15:25 92.3 °F 59 °F 29.9 in WSW 4.6 mph 4.6 mph 33 % 0 in
15:30 93 °F 59.7 °F 29.9 in SW 2.3 mph 3.3 mph 33 % 0 in
15:32 93.2 °F 59.7 °F 29.9 in WSW 5.8 mph 5.8 mph 33 % 0 in
15:37 90.9 °F 55.9 °F 29.9 in ESE 4.6 mph 4.6 mph 31 % 0 in
15:42 91 °F 57 °F 29.9 in West 5.8 mph 5.8 mph 32 % 0 in
15:47 91.6 °F 57.6 °F 29.9 in SSE 8.1 mph 8.1 mph 32 % 0 in
15:52 87.8 °F 56.7 °F 29.9 in ESE 8.1 mph 8.1 mph 35 % 0 in
15:57 86.5 °F 57.2 °F 29.9 in ENE 8.1 mph 8.1 mph 37 % 0 in
16:02 86 °F 58.3 °F 29.9 in NE 9.2 mph 9.2 mph 39 % 0 in
16:07 86.4 °F 58.5 °F 29.9 in East 9.2 mph 9.2 mph 39 % 0 in
16:12 85.8 °F 58.6 °F 29.9 in East 12.3 mph 12.3 mph 40 % 0 in
16:17 84.9 °F 57.9 °F 29.9 in ESE 13.8 mph 13.8 mph 40 % 0 in
16:22 84.7 °F 58.5 °F 29.9 in ENE 10.4 mph 10.4 mph 41 % 0 in
16:27 85.1 °F 59.4 °F 29.9 in ENE 10.4 mph 10.4 mph 42 % 0 in
16:32 85.6 °F 59.9 °F 29.9 in NNE 6.9 mph 6.9 mph 42 % 0 in
16:37 85.8 °F 60.1 °F 29.9 in East 8.1 mph 8.1 mph 42 % 0 in
16:42 85.8 °F 60.1 °F 29.9 in ESE 12.7 mph 12.7 mph 42 % 0 in
16:43 85.6 °F 59.9 °F 29.9 in ESE 6.9 mph 6.9 mph 42 % 0 in
16:48 85.5 °F 60.4 °F 29.9 in ESE 6.9 mph 6.9 mph 43 % 0 in
16:53 85.5 °F 60.4 °F 29.8 in ESE 8.1 mph 8.1 mph 43 % 0 in
16:58 84.9 °F 59.9 °F 29.8 in ESE 11.5 mph 11.5 mph 43 % 0 in
17:03 84.9 °F 59.9 °F 29.8 in ESE 10.4 mph 10.4 mph 43 % 0 in
17:08 84.9 °F 59.9 °F 29.8 in ESE 9.2 mph 9.2 mph 43 % 0 in
17:13 84.9 °F 60.6 °F 29.8 in ESE 11.5 mph 11.5 mph 44 % 0 in
17:18 84.7 °F 60.4 °F 29.8 in ESE 10.4 mph 10.4 mph 44 % 0 in
17:23 84.7 °F 60.4 °F 29.8 in ENE 11.5 mph 11.5 mph 44 % 0 in
17:28 84.4 °F 60.1 °F 29.8 in East 10.4 mph 10.4 mph 44 % 0 in
17:33 84.2 °F 59.9 °F 29.8 in ESE 13.8 mph 13.8 mph 44 % 0 in
17:38 84 °F 60.4 °F 29.8 in East 11.8 mph 11.8 mph 45 % 0 in
17:43 83.3 °F 60.4 °F 29.8 in SE 10.4 mph 10.4 mph 46 % 0 in
17:48 83.5 °F 60.4 °F 29.8 in NE 6.9 mph 6.9 mph 46 % 0 in
17:53 83.5 °F 60.4 °F 29.8 in SE 8.5 mph 8.5 mph 46 % 0 in
17:58 82.9 °F 60.1 °F 29.8 in NE 14.3 mph 14.3 mph 46 % 0 in
18:03 82.8 °F 60.4 °F 29.8 in NE 11.5 mph 11.5 mph 47 % 0 in
18:08 82.6 °F 60.3 °F 29.8 in ESE 8.1 mph 8.1 mph 47 % 0 in
18:13 82.4 °F 60.1 °F 29.8 in East 6.9 mph 6.9 mph 47 % 0 in
18:18 82.2 °F 60.1 °F 29.8 in ESE 12.7 mph 12.7 mph 47 % 0 in
18:23 82.2 °F 60.1 °F 29.8 in SSE 13.8 mph 13.8 mph 47 % 0 in
18:28 82.2 °F 60.1 °F 29.8 in ESE 6.9 mph 6.9 mph 47 % 0 in
18:33 82 °F 59.7 °F 29.8 in East 8.1 mph 8.1 mph 47 % 0 in
18:38 81.5 °F 59.9 °F 29.9 in ENE 8.1 mph 8.1 mph 48 % 0 in
18:43 81.3 °F 60.3 °F 29.9 in East 8.5 mph 8.5 mph 49 % 0 in
18:48 81 °F 60.1 °F 29.9 in ENE 6.9 mph 6.9 mph 49 % 0 in
18:53 80.8 °F 59.7 °F 29.8 in NNE 6 mph 6 mph 49 % 0 in
18:58 80.8 °F 60.4 °F 29.8 in ENE 8.1 mph 8.1 mph 50 % 0 in
19:03 80.6 °F 59.7 °F 29.8 in ESE 10.4 mph 10.4 mph 49 % 0 in
19:08 80.2 °F 60.4 °F 29.8 in NNE 9.2 mph 9.2 mph 51 % 0 in
19:13 80.2 °F 59.9 °F 29.8 in NNE 6.9 mph 6.9 mph 50 % 0 in
19:18 80.2 °F 60.4 °F 29.8 in ENE 6.9 mph 6.9 mph 51 % 0 in
19:23 80.2 °F 60.4 °F 29.9 in ENE 3.6 mph 3.6 mph 51 % 0 in
19:28 80.1 °F 60.3 °F 29.9 in ESE 5.8 mph 5.8 mph 51 % 0 in
19:38 79.5 °F 59.7 °F 29.9 in East 8.1 mph 8.1 mph 51 % 0 in
19:43 79.5 °F 59.7 °F 29.9 in NE 8.1 mph 8.1 mph 51 % 0 in
19:48 79.2 °F 59.5 °F 29.9 in East 7.6 mph 7.6 mph 51 % 0 in
19:53 78.8 °F 59.7 °F 29.9 in ENE 6 mph 6 mph 52 % 0 in
19:58 78.6 °F 59.5 °F 29.9 in East 5.8 mph 5.8 mph 52 % 0 in
20:03 78.3 °F 59.7 °F 29.9 in East 9.2 mph 9.2 mph 53 % 0 in
20:08 77.9 °F 59.4 °F 29.9 in ESE 5.8 mph 5.8 mph 53 % 0 in
20:13 77.7 °F 59.7 °F 29.9 in NE 8.1 mph 8.1 mph 54 % 0 in
20:18 77.5 °F 59.5 °F 29.9 in ENE 6.9 mph 6.9 mph 54 % 0 in
20:23 77.5 °F 59.5 °F 29.8 in ESE 5.8 mph 5.8 mph 54 % 0 in
20:28 77.4 °F 59.4 °F 29.8 in East 9.2 mph 9.2 mph 54 % 0 in
20:33 77.4 °F 59.9 °F 29.8 in ENE 3.5 mph 3.5 mph 55 % 0 in
20:38 77.2 °F 59.7 °F 29.9 in ESE 3.6 mph 3.6 mph 55 % 0 in
20:43 77.2 °F 59.7 °F 29.9 in ESE 6.4 mph 6.4 mph 55 % 0 in
20:48 77.2 °F 60.3 °F 29.9 in East 4.6 mph 4.6 mph 56 % 0 in
20:53 76.8 °F 60.4 °F 29.9 in East 8.1 mph 8.1 mph 57 % 0 in
20:58 76.6 °F 60.3 °F 29.9 in East 3.5 mph 3.5 mph 57 % 0 in
21:03 76.5 °F 60.1 °F 29.9 in ESE 3.5 mph 3.5 mph 57 % 0 in
21:08 76.3 °F 59.9 °F 29.9 in NE 5.8 mph 5.8 mph 57 % 0 in
21:13 76.1 °F 59.7 °F 29.9 in ENE 5.8 mph 5.8 mph 57 % 0 in
21:15 71.2 °F 63.3 °F 29.9 in NW 1 mph 2 mph 76 % 0 in
21:18 75.9 °F 59.5 °F 29.9 in ESE 4.6 mph 4.6 mph 57 % 0 in
21:23 75.7 °F 59.4 °F 29.9 in East 6.9 mph 6.9 mph 57 % 0 in
21:25 71.2 °F 63.7 °F 29.9 in Calm   2 mph 77 % 0 in
21:28 75.6 °F 60.3 °F 29.9 in ESE 6.9 mph 6.9 mph 59 % 0 in
21:33 75.4 °F 60.1 °F 29.9 in NNE 3.5 mph 3.6 mph 59 % 0 in
21:35 71.2 °F 63.7 °F 29.9 in WSW 1 mph 2 mph 77 % 0 in
21:38 75.2 °F 60.4 °F 29.9 in East 5.8 mph 5.8 mph 60 % 0 in
21:43 75.2 °F 61.3 °F 29.9 in ESE 8.1 mph 8.1 mph 62 % 0 in
21:45 71.2 °F 63.7 °F 29.9 in WSW 1 mph 2 mph 77 % 0 in
21:48 75 °F 62.4 °F 29.9 in NE 12.1 mph 12.1 mph 65 % 0 in
21:53 74.7 °F 62.1 °F 29.9 in NNE 5.8 mph 5.8 mph 65 % 0 in
21:55 71.1 °F 63.9 °F 29.9 in WSW 1 mph 2 mph 78 % 0 in
21:58 74.7 °F 62.4 °F 29.9 in East 4.6 mph 4.6 mph 66 % 0 in
22:03 74.5 °F 63.1 °F 29.9 in ESE 8.1 mph 8.1 mph 68 % 0 in
22:05 71.1 °F 63.5 °F 29.9 in WSW 2 mph 3 mph 77 % 0 in
22:08 74.3 °F 63.5 °F 29.9 in ESE 8.1 mph 8.1 mph 69 % 0 in
22:13 74.1 °F 63.3 °F 29.9 in East 5.8 mph 5.8 mph 69 % 0 in
22:15 70.7 °F 62.8 °F 29.9 in West 2 mph 4 mph 76 % 0 in
22:18 73.9 °F 63.9 °F 29.9 in ESE 8.1 mph 8.1 mph 71 % 0 in
22:23 73.8 °F 63.9 °F 29.9 in NE 5.8 mph 5.8 mph 71 % 0 in
22:25 70.7 °F 60.8 °F 29.9 in West 3 mph 3 mph 71 % 0 in
22:28 73.8 °F 63.9 °F 29.9 in ESE 5.8 mph 5.8 mph 71 % 0 in
22:33 73.6 °F 63.7 °F 29.9 in ENE 4.6 mph 4.6 mph 71 % 0 in
22:35 70.9 °F 59 °F 30 in West 3 mph 4 mph 66 % 0 in
22:38 73.6 °F 63.7 °F 29.9 in SE 4.7 mph 4.7 mph 71 % 0 in
22:43 73.4 °F 63.9 °F 29.9 in East 2.9 mph 2.9 mph 72 % 0 in
22:45 70.7 °F 58.5 °F 30 in WSW 2 mph 3 mph 65 % 0 in
22:48 73.4 °F 64.2 °F 29.9 in ENE 6.2 mph 6.2 mph 73 % 0 in
22:53 73.4 °F 64.2 °F 29.9 in East 4.6 mph 4.6 mph 73 % 0 in
22:55 70.5 °F 57.4 °F 29.9 in West 2 mph 4 mph 63 % 0 in
22:58 73.4 °F 64.2 °F 29.9 in East 4.9 mph 4.9 mph 73 % 0 in
23:03 73.2 °F 64 °F 29.9 in ESE 5.8 mph 5.8 mph 73 % 0 in
23:05 70.2 °F 56.1 °F 29.9 in West 2 mph 3 mph 61 % 0 in
23:08 73.2 °F 64.4 °F 29.9 in East 4.9 mph 4.9 mph 74 % 0 in
23:13 73.2 °F 64.4 °F 29.9 in ESE 3.5 mph 3.5 mph 74 % 0 in
23:15 69.8 °F 55.2 °F 29.9 in West 1 mph 2 mph 60 % 0 in
23:18 73 °F 64.2 °F 29.9 in ENE 5.8 mph 5.8 mph 74 % 0 in
23:23 73 °F 64.2 °F 29.9 in North 5.8 mph 5.8 mph 74 % 0 in
23:25 69.6 °F 55 °F 29.9 in West 2 mph 2 mph 60 % 0 in
23:28 73 °F 64.2 °F 29.9 in ENE 3.5 mph 3.5 mph 74 % 0 in
23:33 72.9 °F 64 °F 29.9 in ENE 2.6 mph 2.6 mph 74 % 0 in
23:35 69.4 °F 54.5 °F 29.9 in West 2 mph 4 mph 59 % 0 in
23:38 72.9 °F 64 °F 29.9 in ENE 2.3 mph 2.3 mph 74 % 0 in
23:43 72.7 °F 63.9 °F 29.9 in East 3.1 mph 3.1 mph 74 % 0 in
23:45 69.3 °F 54.3 °F 29.9 in West 1 mph 4 mph 59 % 0 in
23:48 72.7 °F 63.9 °F 29.9 in NE 3.5 mph 3.5 mph 74 % 0 in
23:53 72.5 °F 63.7 °F 29.9 in NNE 4.6 mph 4.6 mph 74 % 0 in
23:55 68.9 °F 53.4 °F 29.9 in West 2 mph 3 mph 58 % 0 in
23:58 72.5 °F 63.7 °F 29.9 in East 3.5 mph 3.5 mph 74 % 0 in
Meteo Sesrovires
Elogis d' Weather Underground - 3.75 mb

Guio original per  Jim McMurry - jmcmurry@mwt.net Adaptat per a la plantilla per  Wim van der Kuil - Leuven-Template.eu

Trobareu la nostra informacio del temps tambe a:

Weather Underground

AWEKAS